Time;durP1;ratioP1;P1;durP2;ratioP2;P2;SDS_P1;SDS_P2;PMS_P1;PMS_P2;Temp;Humidity;BMP_temperature;BMP_pressure;BME280_temperature;BME280_humidity;BME280_pressure;Samples;Min_cycle;Max_cycle;Signal;HPM_P1;HPM_P2
2023/12/24 00:02:21;;;;;;;6.03;4.03;;;;;;;10.81;68.00;93876.91;5045992;28;20910;-78
2023/12/24 00:04:49;;;;;;;3.77;3.40;;;;;;;10.75;68.22;93865.56;5043776;28;20250;-76
2023/12/24 00:07:16;;;;;;;4.67;3.10;;;;;;;10.84;68.37;93873.22;5043612;28;20653;-77
2023/12/24 00:09:43;;;;;;;4.13;3.40;;;;;;;10.85;68.23;93875.63;5032535;28;20203;-78
2023/12/24 00:12:10;;;;;;;3.50;3.20;;;;;;;10.89;68.29;93876.13;5032311;28;20188;-78
2023/12/24 00:14:38;;;;;;;8.07;3.70;;;;;;;10.74;68.07;93848.59;5033324;28;20619;-77
2023/12/24 00:17:05;;;;;;;3.93;3.37;;;;;;;10.94;68.02;93884.91;5046843;28;20198;-77
2023/12/24 00:19:33;;;;;;;4.43;3.43;;;;;;;10.98;68.09;93885.41;5052059;28;20234;-77
2023/12/24 00:21:59;;;;;;;4.80;3.00;;;;;;;11.03;68.07;93886.50;5051453;28;20613;-78
2023/12/24 00:24:26;;;;;;;4.90;3.07;;;;;;;11.00;67.83;93884.25;5052102;28;20731;-78
2023/12/24 00:26:53;;;;;;;5.60;3.50;;;;;;;11.11;67.87;93893.38;5042961;28;20196;-79
2023/12/24 00:29:20;;;;;;;4.03;2.80;;;;;;;11.11;67.78;93885.72;5032051;28;20221;-80
2023/12/24 00:31:47;;;;;;;6.40;3.50;;;;;;;11.10;67.75;93880.78;5032202;28;20195;-78
2023/12/24 00:34:14;;;;;;;3.73;3.17;;;;;;;11.25;67.63;93905.53;5031494;28;20629;-79
2023/12/24 00:36:42;;;;;;;4.87;3.17;;;;;;;11.32;67.57;93910.03;5032919;28;20586;-79
2023/12/24 00:39:09;;;;;;;3.27;2.93;;;;;;;11.18;67.66;93884.13;5031773;28;20196;-79
2023/12/24 00:41:39;;;;;;;6.33;3.20;;;;;;;11.35;67.30;93902.00;5031908;28;20198;-79
2023/12/24 00:44:05;;;;;;;3.93;3.10;;;;;;;10.95;67.25;93830.22;5040091;28;20235;-80
2023/12/24 00:46:32;;;;;;;7.77;3.00;;;;;;;11.45;67.17;93907.75;5051868;28;20627;-78
2023/12/24 00:48:59;;;;;;;4.63;2.87;;;;;;;11.56;67.12;93915.88;5051348;28;20198;-79
2023/12/24 00:51:26;;;;;;;4.10;2.93;;;;;;;11.58;67.11;93923.44;5051840;28;20252;-78
2023/12/24 00:53:54;;;;;;;4.10;2.90;;;;;;;11.67;66.93;93939.56;5049999;28;20261;-78
2023/12/24 00:56:21;;;;;;;4.77;3.10;;;;;;;11.71;66.79;93948.53;5031670;28;20207;-79
2023/12/24 00:58:48;;;;;;;3.87;2.40;;;;;;;11.47;66.58;93906.63;5031546;28;20279;-77
2023/12/24 01:01:14;;;;;;;3.63;2.47;;;;;;;11.73;66.64;93944.03;5041188;28;20187;-78
2023/12/24 01:03:41;;;;;;;5.37;2.63;;;;;;;11.85;66.52;93963.25;5051064;28;20705;-77
2023/12/24 01:06:08;;;;;;;3.27;2.77;;;;;;;11.75;66.27;93945.47;5052973;28;20191;-77
2023/12/24 01:08:35;;;;;;;5.13;2.73;;;;;;;11.76;66.28;93952.19;5058066;28;20190;-76
2023/12/24 01:11:03;;;;;;;3.60;2.50;;;;;;;11.91;66.06;93975.41;5056790;28;20194;-76
2023/12/24 01:13:29;;;;;;;5.63;2.53;;;;;;;12.00;66.00;93992.38;5060852;28;20214;-78
2023/12/24 01:15:56;;;;;;;3.27;2.17;;;;;;;12.04;65.77;93987.72;5059234;28;20202;-78
2023/12/24 01:18:23;;;;;;;3.97;2.57;;;;;;;11.87;65.71;93963.88;5049268;28;20233;-77
2023/12/24 01:20:50;;;;;;;3.33;2.33;;;;;;;12.08;65.57;93993.31;5037400;28;20643;-77
2023/12/24 01:23:16;;;;;;;4.27;2.40;;;;;;;12.10;65.57;94001.66;5037046;28;20179;-78
2023/12/24 01:25:43;;;;;;;2.67;2.40;;;;;;;11.72;65.47;93938.13;5050763;28;20664;-78
2023/12/24 01:28:11;;;;;;;2.67;2.30;;;;;;;12.12;65.47;94003.06;5051044;28;20266;-78
2023/12/24 01:30:38;;;;;;;4.90;2.27;;;;;;;11.90;65.22;93976.38;5043571;28;20203;-77
2023/12/24 01:33:05;;;;;;;3.93;2.47;;;;;;;12.13;65.40;94011.56;5030608;28;20653;-79
2023/12/24 01:35:32;;;;;;;2.37;2.17;;;;;;;12.14;65.31;94023.44;5031238;28;20219;-78
2023/12/24 01:37:58;;;;;;;2.20;2.00;;;;;;;12.03;65.32;94002.28;5030596;28;20184;-77
2023/12/24 01:40:25;;;;;;;3.00;2.40;;;;;;;12.11;65.36;94021.97;5031816;28;20581;-79
2023/12/24 01:42:52;;;;;;;5.90;2.50;;;;;;;11.90;65.06;93985.81;5047867;28;20194;-79
2023/12/24 01:45:20;;;;;;;2.87;2.10;;;;;;;12.10;65.29;94014.47;5050809;28;20238;-79
2023/12/24 01:47:47;;;;;;;2.23;1.90;;;;;;;12.09;65.16;94017.97;5049976;28;20206;-78
2023/12/24 01:50:14;;;;;;;3.57;2.37;;;;;;;12.07;65.00;94014.78;5049894;28;20195;-78
2023/12/24 01:52:42;;;;;;;4.80;2.33;;;;;;;12.05;65.10;94010.63;5031274;28;20215;-80
2023/12/24 01:55:10;;;;;;;2.50;2.30;;;;;;;12.03;65.12;94020.22;5030244;28;20200;-78
2023/12/24 01:57:37;;;;;;;2.20;2.00;;;;;;;12.03;64.93;94022.78;5030342;28;20584;-80
2023/12/24 02:00:05;;;;;;;2.33;2.13;;;;;;;12.01;64.90;94029.06;5030652;28;20313;-79
2023/12/24 02:02:34;;;;;;;4.33;2.40;;;;;;;11.91;65.00;94018.16;5031215;28;20180;-79
2023/12/24 02:05:01;;;;;;;4.00;2.20;;;;;;;11.81;64.83;94006.28;5030299;28;20246;-79
2023/12/24 02:07:34;;;;;;;2.30;2.10;;;;;;;11.44;64.90;93953.06;5045422;28;20191;-79
2023/12/24 02:10:01;;;;;;;2.37;1.83;;;;;;;11.94;64.82;94035.78;5050231;28;20222;-79
2023/12/24 02:12:28;;;;;;;2.10;1.90;;;;;;;11.66;64.86;93997.69;5048615;28;20209;-80
2023/12/24 02:14:55;;;;;;;2.20;2.00;;;;;;;11.79;64.82;94027.94;5050001;28;20187;-78
2023/12/24 02:17:24;;;;;;;2.27;2.07;;;;;;;11.97;64.79;94049.06;5050304;28;20191;-81
2023/12/24 02:19:53;;;;;;;2.83;2.00;;;;;;;11.98;64.82;94049.88;5046646;28;20230;-77
2023/12/24 02:22:21;;;;;;;3.43;2.20;;;;;;;11.97;64.66;94048.28;5033613;28;20854;-79
2023/12/24 02:24:48;;;;;;;3.13;2.33;;;;;;;11.94;64.51;94046.03;5039110;28;20230;-77
2023/12/24 02:27:22;;;;;;;3.53;1.80;;;;;;;11.94;64.62;94062.19;5030787;28;20188;-78
2023/12/24 02:29:54;;;;;;;2.00;1.80;;;;;;;11.94;64.59;94056.28;5029666;28;20188;-78
2023/12/24 02:32:26;;;;;;;3.57;1.90;;;;;;;11.94;64.67;94054.50;5029826;28;20668;-77
2023/12/24 02:34:55;;;;;;;3.70;2.13;;;;;;;11.92;64.48;94047.97;5038768;28;20195;-78
2023/12/24 02:37:24;;;;;;;2.33;2.10;;;;;;;11.92;64.32;94055.66;5050020;28;20194;-77
2023/12/24 02:39:51;;;;;;;2.40;1.97;;;;;;;11.68;64.35;94023.91;5049947;28;20191;-76
2023/12/24 02:42:18;;;;;;;2.50;2.10;;;;;;;11.91;64.27;94059.16;5050005;28;20198;-77
2023/12/24 02:44:45;;;;;;;3.83;2.20;;;;;;;11.90;64.38;94070.38;5045212;28;20230;-77
2023/12/24 02:47:12;;;;;;;3.27;2.13;;;;;;;11.90;64.10;94073.72;5042221;28;20191;-78
2023/12/24 02:49:38;;;;;;;2.10;1.90;;;;;;;11.89;64.19;94074.69;5031096;28;20192;-77
2023/12/24 02:52:06;;;;;;;1.87;1.77;;;;;;;11.81;63.93;94069.53;5049098;28;20248;-78
2023/12/24 02:54:34;;;;;;;2.30;2.10;;;;;;;11.88;64.33;94075.66;5067108;28;20211;-76
2023/12/24 02:57:00;;;;;;;1.90;1.80;;;;;;;11.46;64.10;94019.44;5054717;28;20190;-78
2023/12/24 02:59:28;;;;;;;1.93;1.70;;;;;;;11.88;63.94;94088.47;5049549;28;20201;-77
2023/12/24 03:01:55;;;;;;;2.20;1.67;;;;;;;11.51;64.06;94025.69;5049441;28;20579;-77
2023/12/24 03:04:21;;;;;;;3.17;2.10;;;;;;;11.88;63.91;94085.13;5049034;28;20218;-77
2023/12/24 03:06:48;;;;;;;3.13;1.93;;;;;;;11.71;63.90;94056.09;5049257;28;20256;-78
2023/12/24 03:09:15;;;;;;;2.13;1.80;;;;;;;11.78;64.12;94073.22;5049437;28;20199;-79
2023/12/24 03:11:43;;;;;;;2.00;1.90;;;;;;;11.88;63.88;94085.91;5036214;28;20567;-78
2023/12/24 03:14:10;;;;;;;2.00;1.80;;;;;;;11.75;63.94;94088.91;5029545;28;20188;-78
2023/12/24 03:16:37;;;;;;;1.80;1.70;;;;;;;11.86;63.82;94107.53;5029380;28;20188;-78
2023/12/24 03:19:03;;;;;;;3.07;1.90;;;;;;;11.86;63.72;94110.06;5028890;28;20224;-78
2023/12/24 03:21:30;;;;;;;2.03;1.83;;;;;;;11.76;63.75;94093.06;5029160;28;20564;-78
2023/12/24 03:23:57;;;;;;;3.00;2.43;;;;;;;11.87;63.62;94116.81;5029305;28;20203;-78
2023/12/24 03:26:24;;;;;;;2.57;2.00;;;;;;;11.86;63.76;94116.00;5029152;28;20191;-79
2023/12/24 03:28:53;;;;;;;1.90;1.70;;;;;;;11.73;63.64;94105.41;5029033;28;20187;-78
2023/12/24 03:31:20;;;;;;;1.90;1.80;;;;;;;11.87;63.62;94125.28;5029265;28;20188;-79
2023/12/24 03:33:47;;;;;;;2.37;2.10;;;;;;;11.87;63.29;94132.97;5029323;28;20196;-79
2023/12/24 03:36:14;;;;;;;1.90;1.80;;;;;;;11.89;63.45;94145.63;5030679;28;20196;-78
2023/12/24 03:38:40;;;;;;;2.03;1.83;;;;;;;11.82;63.48;94127.50;5033498;28;20208;-78
2023/12/24 03:41:07;;;;;;;2.03;1.93;;;;;;;11.76;63.49;94123.03;5033218;28;20195;-77
2023/12/24 03:43:34;;;;;;;1.73;1.63;;;;;;;11.90;63.51;94153.16;5033691;28;20184;-79
2023/12/24 03:46:03;;;;;;;3.20;2.27;;;;;;;11.91;63.45;94162.44;5034202;28;20213;-78
2023/12/24 03:48:30;;;;;;;2.30;1.80;;;;;;;11.86;63.15;94151.88;5035926;28;20245;-78
2023/12/24 03:50:57;;;;;;;1.57;1.50;;;;;;;11.92;62.99;94165.81;5058256;28;20202;-78
2023/12/24 03:53:24;;;;;;;2.10;1.90;;;;;;;11.93;63.18;94172.53;5062292;28;20199;-78
2023/12/24 03:55:51;;;;;;;1.93;1.80;;;;;;;11.94;63.09;94174.94;5062296;28;20733;-78
2023/12/24 03:58:17;;;;;;;4.40;2.20;;;;;;;11.96;63.09;94182.47;5053034;28;20217;-78
2023/12/24 04:00:44;;;;;;;1.97;1.87;;;;;;;11.81;62.99;94156.63;5053210;28;20194;-78
2023/12/24 04:03:12;;;;;;;1.90;1.80;;;;;;;11.99;62.96;94192.41;5052530;28;20737;-79
2023/12/24 04:05:39;;;;;;;2.00;1.90;;;;;;;11.76;62.89;94158.88;5033106;28;20293;-77
2023/12/24 04:08:06;;;;;;;2.20;1.90;;;;;;;12.00;62.77;94206.81;5032721;28;20211;-78
2023/12/24 04:10:38;;;;;;;2.00;1.90;;;;;;;12.00;62.96;94210.19;5032550;28;20215;-76
2023/12/24 04:13:05;;;;;;;1.80;1.70;;;;;;;12.01;62.92;94211.78;5032092;28;20286;-78
2023/12/24 04:15:32;;;;;;;4.20;1.90;;;;;;;12.02;62.87;94221.06;5032536;28;20207;-78
2023/12/24 04:17:58;;;;;;;2.00;1.80;;;;;;;11.96;62.91;94219.16;5031906;28;20223;-78
2023/12/24 04:20:26;;;;;;;2.07;1.90;;;;;;;12.04;62.78;94233.72;5032308;28;20191;-78
2023/12/24 04:22:53;;;;;;;2.20;2.00;;;;;;;11.87;62.79;94204.72;5032518;28;20184;-78
2023/12/24 04:25:20;;;;;;;1.80;1.70;;;;;;;12.03;62.78;94224.44;5032222;28;20220;-77
2023/12/24 04:27:47;;;;;;;2.67;1.87;;;;;;;12.03;62.62;94227.00;5032269;28;20291;-78
2023/12/24 04:30:14;;;;;;;2.20;2.00;;;;;;;12.02;62.80;94225.41;5032526;28;20210;-77
2023/12/24 04:32:41;;;;;;;2.73;2.20;;;;;;;12.02;62.80;94226.19;5032383;28;20196;-79
2023/12/24 04:35:09;;;;;;;2.63;1.90;;;;;;;12.02;62.73;94227.97;5050692;28;20613;-78
2023/12/24 04:37:37;;;;;;;2.00;1.90;;;;;;;11.91;62.76;94210.31;5052072;28;20667;-78
2023/12/24 04:40:05;;;;;;;4.70;2.20;;;;;;;12.02;62.81;94235.66;5051446;28;20198;-79
2023/12/24 04:42:32;;;;;;;3.13;2.17;;;;;;;11.85;62.84;94204.06;5051931;28;20194;-78
2023/12/24 04:44:59;;;;;;;2.03;1.93;;;;;;;11.62;62.82;94170.53;5051657;28;20207;-79
2023/12/24 04:47:26;;;;;;;2.10;1.90;;;;;;;12.02;62.72;94230.53;5050715;28;20187;-78
2023/12/24 04:49:52;;;;;;;3.73;2.20;;;;;;;12.01;62.71;94239.19;5051017;28;20210;-79
2023/12/24 04:52:19;;;;;;;1.80;1.70;;;;;;;11.70;62.82;94179.97;5051499;28;20234;-79
2023/12/24 04:54:47;;;;;;;1.90;1.80;;;;;;;12.02;62.75;94231.34;5051203;28;20198;-78
2023/12/24 04:57:14;;;;;;;2.00;1.90;;;;;;;12.03;62.60;94227.00;5039738;28;20195;-79
2023/12/24 04:59:41;;;;;;;2.00;1.80;;;;;;;12.03;62.80;94240.63;5032003;28;20731;-79
2023/12/24 05:02:08;;;;;;;1.90;1.80;;;;;;;12.03;62.72;94240.63;5041408;28;20205;-78
2023/12/24 05:04:35;;;;;;;2.70;2.07;;;;;;;12.04;62.71;94238.84;5050741;28;20215;-78
2023/12/24 05:07:02;;;;;;;2.03;1.83;;;;;;;12.06;62.61;94249.75;5051055;28;20186;-78
2023/12/24 05:09:28;;;;;;;3.80;1.83;;;;;;;12.05;62.66;94258.41;5051337;28;20564;-77
2023/12/24 05:11:57;;;;;;;2.70;1.87;;;;;;;12.04;62.54;94257.59;5039935;28;20184;-77
2023/12/24 05:14:24;;;;;;;2.00;1.83;;;;;;;12.05;62.62;94274.59;5031633;28;20699;-77
2023/12/24 05:16:51;;;;;;;2.70;1.80;;;;;;;12.07;62.55;94263.38;5031167;28;20241;-79
2023/12/24 05:19:18;;;;;;;2.30;2.10;;;;;;;12.01;62.58;94262.25;5043035;28;20226;-78
2023/12/24 05:21:44;;;;;;;2.30;2.10;;;;;;;11.93;62.51;94265.59;5050989;28;20199;-77
2023/12/24 05:24:11;;;;;;;2.03;1.70;;;;;;;11.87;62.19;94252.59;5050837;28;20190;-78
2023/12/24 05:26:38;;;;;;;2.87;1.97;;;;;;;12.09;62.55;94281.94;5039617;28;20219;-78
2023/12/24 05:29:06;;;;;;;1.70;1.60;;;;;;;12.09;62.43;94289.63;5030915;28;20184;-78
2023/12/24 05:31:33;;;;;;;1.90;1.80;;;;;;;11.53;62.29;94203.00;5042540;28;20191;-79
2023/12/24 05:33:59;;;;;;;1.90;1.70;;;;;;;12.02;62.55;94269.78;5050858;28;20633;-78
2023/12/24 05:36:26;;;;;;;3.33;1.80;;;;;;;11.81;62.33;94225.81;5051147;28;20560;-77
2023/12/24 05:38:53;;;;;;;1.67;1.57;;;;;;;12.07;62.41;94265.94;5050501;28;20660;-78
2023/12/24 05:41:20;;;;;;;2.00;1.80;;;;;;;12.10;62.38;94266.44;5040249;28;20561;-79
2023/12/24 05:43:46;;;;;;;1.93;1.83;;;;;;;11.93;62.39;94257.91;5038605;28;20202;-77
2023/12/24 05:46:14;;;;;;;2.00;1.90;;;;;;;12.10;62.35;94286.13;5051193;28;20237;-78
2023/12/24 05:48:41;;;;;;;2.27;2.07;;;;;;;12.10;62.40;94293.81;5052699;28;20248;-78
2023/12/24 05:51:09;;;;;;;1.80;1.70;;;;;;;12.10;62.55;94286.94;5057391;28;20245;-77
2023/12/24 05:53:35;;;;;;;2.07;1.83;;;;;;;12.09;62.46;94272.53;5056251;28;20203;-79
2023/12/24 05:56:02;;;;;;;2.93;1.93;;;;;;;12.09;62.34;94271.69;5052453;28;20190;-78
2023/12/24 05:58:30;;;;;;;2.07;1.97;;;;;;;12.08;62.37;94264.97;5051386;28;20187;-77
2023/12/24 06:00:57;;;;;;;1.83;1.70;;;;;;;12.07;62.54;94271.06;5054916;28;20202;-77
2023/12/24 06:03:25;;;;;;;2.33;1.90;;;;;;;11.98;62.53;94258.22;5047557;28;20191;-78
2023/12/24 06:05:52;;;;;;;1.70;1.60;;;;;;;12.05;62.68;94268.66;5036944;28;20338;-77
2023/12/24 06:08:20;;;;;;;2.00;1.90;;;;;;;11.92;62.47;94256.31;5032294;28;20245;-78
2023/12/24 06:10:47;;;;;;;1.80;1.70;;;;;;;12.07;62.43;94283.88;5030631;28;20203;-80
2023/12/24 06:13:14;;;;;;;3.57;1.83;;;;;;;12.08;62.52;94282.91;5030674;28;20235;-77
2023/12/24 06:15:41;;;;;;;1.90;1.80;;;;;;;12.09;62.25;94279.38;5030550;28;20192;-78
2023/12/24 06:18:08;;;;;;;2.30;1.90;;;;;;;11.96;62.30;94261.88;5030474;28;20235;-78
2023/12/24 06:20:37;;;;;;;1.90;1.70;;;;;;;12.12;62.20;94281.63;5030414;28;20191;-79
2023/12/24 06:23:06;;;;;;;2.13;2.00;;;;;;;12.13;62.28;94288.38;5037525;28;20183;-78
2023/12/24 06:25:34;;;;;;;2.13;2.03;;;;;;;12.15;62.19;94283.91;5050312;28;20253;-78
2023/12/24 06:28:04;;;;;;;1.70;1.60;;;;;;;12.10;62.10;94279.25;5052579;28;20241;-78
2023/12/24 06:30:30;;;;;;;1.87;1.77;;;;;;;11.85;62.18;94242.50;5067549;28;20651;-77
2023/12/24 06:32:57;;;;;;;4.20;1.70;;;;;;;12.21;61.99;94296.88;5069281;28;20191;-76
2023/12/24 06:35:24;;;;;;;2.40;2.20;;;;;;;12.44;86.47;94280.91;5057145;28;20583;-75
2023/12/24 06:37:55;;;;;;;8.93;2.23;;;;;;;12.75;100.00;94227.19;5036175;28;20195;-76
2023/12/24 06:40:22;;;;;;;4.43;1.80;;;;;;;13.44;100.00;94260.94;5043005;28;20187;-76
2023/12/24 06:42:49;;;;;;;1.83;1.73;;;;;;;13.44;96.54;94228.31;5041193;28;20183;-75
2023/12/24 06:45:15;;;;;;;3.87;2.10;;;;;;;13.89;92.49;94296.22;5029054;28;20218;-75
2023/12/24 06:47:42;;;;;;;4.43;1.83;;;;;;;13.93;89.60;94299.25;5029263;28;20196;-75
2023/12/24 06:50:09;;;;;;;1.70;1.60;;;;;;;13.93;87.04;94307.78;5029200;28;20650;-76
2023/12/24 06:52:36;;;;;;;2.80;2.00;;;;;;;13.93;85.13;94327.53;5029824;28;20192;-76
2023/12/24 06:55:05;;;;;;;2.20;2.00;;;;;;;13.63;82.98;94283.63;5029233;28;20191;-75
2023/12/24 06:57:32;;;;;;;1.73;1.63;;;;;;;13.89;81.54;94333.97;5029260;28;20195;-76
2023/12/24 06:59:59;;;;;;;2.57;1.83;;;;;;;13.64;80.16;94310.94;5030640;28;20194;-76
2023/12/24 07:02:26;;;;;;;4.70;1.90;;;;;;;13.76;79.03;94330.16;5028982;28;20650;-77
2023/12/24 07:04:53;;;;;;;5.07;2.30;;;;;;;13.79;78.06;94342.69;5041761;28;20199;-77
2023/12/24 07:07:19;;;;;;;23.10;2.17;;;;;;;13.92;84.38;94349.88;5043098;28;20187;-77
2023/12/24 07:09:46;;;;;;;4.53;1.83;;;;;;;14.25;92.48;94342.84;5040039;28;20183;-79
2023/12/24 07:12:14;;;;;;;2.63;1.83;;;;;;;14.44;93.94;94312.50;5043485;28;20252;-78
2023/12/24 07:14:41;;;;;;;6.13;1.80;;;;;;;14.90;92.51;94333.94;5051931;28;20918;-78
2023/12/24 07:17:08;;;;;;;4.37;2.10;;;;;;;15.34;89.78;94359.00;5048833;28;20195;-78
2023/12/24 07:19:35;;;;;;;5.00;2.70;;;;;;;15.65;87.11;94374.34;5042819;28;20225;-77
2023/12/24 07:22:02;;;;;;;2.83;2.00;;;;;;;15.93;83.63;94356.50;5041403;28;20191;-81
2023/12/24 07:24:29;;;;;;;2.67;2.10;;;;;;;16.17;81.56;94354.59;5055993;28;20660;-78
2023/12/24 07:26:55;;;;;;;2.27;1.70;;;;;;;16.39;80.04;94356.25;5046144;28;20727;-84
2023/12/24 07:29:24;;;;;;;4.00;2.47;;;;;;;16.61;79.38;94369.19;5032085;28;20191;-79
2023/12/24 07:31:50;;;;;;;2.20;1.87;;;;;;;16.81;78.07;94365.06;5031213;28;20298;-78
2023/12/24 07:34:18;;;;;;;3.83;1.93;;;;;;;16.60;75.39;94303.06;5031355;28;20206;-78
2023/12/24 07:36:45;;;;;;;1.70;1.60;;;;;;;17.10;72.97;94371.91;5042959;28;20202;-80
2023/12/24 07:39:12;;;;;;;1.80;1.70;;;;;;;17.16;70.69;94370.34;5031654;28;20638;-87
2023/12/24 07:41:39;;;;;;;5.27;1.70;;;;;;;17.28;67.93;94397.28;5031885;28;20192;-84
2023/12/24 07:44:05;;;;;;;2.20;2.00;;;;;;;17.39;70.46;94385.63;5031925;28;20215;-83
2023/12/24 07:46:36;;;;;;;7.20;2.00;;;;;;;17.33;68.53;94335.50;5031232;28;20250;-85
2023/12/24 07:49:03;;;;;;;2.27;1.93;;;;;;;17.54;65.57;94369.06;5032971;28;20179;-75
2023/12/24 07:51:31;;;;;;;2.30;2.10;;;;;;;17.57;65.34;94360.09;5042990;28;20199;-80
2023/12/24 07:53:57;;;;;;;1.80;1.70;;;;;;;17.70;64.77;94364.56;5031149;28;20195;-81
2023/12/24 07:56:24;;;;;;;2.83;2.00;;;;;;;17.78;63.41;94356.69;5046217;28;20195;-76
2023/12/24 07:58:51;;;;;;;2.17;2.07;;;;;;;17.85;61.66;94361.91;5049992;28;20190;-78
2023/12/24 08:01:18;;;;;;;2.63;2.10;;;;;;;17.90;60.04;94377.66;5050745;28;20195;-78
2023/12/24 08:03:46;;;;;;;2.60;2.07;;;;;;;17.51;61.84;94320.31;5050516;28;20521;-84
2023/12/24 08:06:16;;;;;;;2.50;2.10;;;;;;;18.22;64.59;94392.59;5049466;28;20214;-81
2023/12/24 08:08:43;;;;;;;2.33;2.13;;;;;;;18.47;65.55;94387.69;5049440;28;20199;-77
2023/12/24 08:11:09;;;;;;;2.10;1.90;;;;;;;18.73;65.55;94393.97;5031886;28;20223;-74
2023/12/24 08:13:37;;;;;;;3.50;2.20;;;;;;;18.85;65.35;94363.13;5031192;28;20202;-85
2023/12/24 08:16:04;;;;;;;2.73;2.20;;;;;;;19.10;64.97;94360.78;5029411;28;20223;-72
2023/12/24 08:18:31;;;;;;;2.20;2.00;;;;;;;19.08;64.53;94335.03;5029408;28;20333;-78
2023/12/24 08:20:59;;;;;;;2.47;2.03;;;;;;;19.22;64.05;94364.38;5029491;28;20200;-78
2023/12/24 08:23:26;;;;;;;1.90;1.80;;;;;;;19.25;63.00;94367.34;5029153;28;20195;-73
2023/12/24 08:25:53;;;;;;;3.53;1.90;;;;;;;19.27;62.16;94359.41;5030105;28;20229;-75
2023/12/24 08:28:19;;;;;;;2.30;2.10;;;;;;;19.28;61.43;94358.38;5047325;28;20187;-71
2023/12/24 08:30:46;;;;;;;2.10;1.90;;;;;;;19.29;60.61;94342.63;5044795;28;20281;-75
2023/12/24 08:33:13;;;;;;;2.33;2.13;;;;;;;19.33;59.89;94337.03;5048517;28;20644;-78
2023/12/24 08:35:40;;;;;;;3.08;2.42;;;;;;;19.39;59.13;94346.63;5040097;28;20656;-74
2023/12/24 08:38:08;;;;;;;2.10;1.90;;;;;;;19.27;58.15;94313.50;5028783;28;20188;-74
2023/12/24 08:40:35;;;;;;;2.00;1.90;;;;;;;19.63;57.27;94353.81;5040427;28;20256;-75
2023/12/24 08:43:01;;;;;;;2.63;1.90;;;;;;;19.64;56.57;94347.63;5049107;28;20199;-76
2023/12/24 08:45:29;;;;;;;4.22;2.30;;;;;;;19.62;56.67;94370.38;5049486;28;20272;-82
2023/12/24 08:47:55;;;;;;;2.17;1.98;;;;;;;19.39;56.50;94346.63;5048211;28;20213;-75
2023/12/24 08:50:22;;;;;;;2.33;2.13;;;;;;;19.40;56.08;94356.00;5038217;28;20309;-76
2023/12/24 08:52:49;;;;;;;2.58;2.20;;;;;;;19.23;56.05;94353.00;5049279;28;20202;-77
2023/12/24 08:55:18;;;;;;;2.50;2.15;;;;;;;19.14;55.90;94360.19;5049041;28;20191;-75
2023/12/24 08:57:45;;;;;;;2.13;1.93;;;;;;;19.02;55.58;94372.91;5043497;28;20195;-74
2023/12/24 09:00:13;;;;;;;2.20;2.00;;;;;;;18.95;55.38;94359.16;5035708;28;20226;-76
2023/12/24 09:02:40;;;;;;;2.30;2.10;;;;;;;18.94;55.23;94359.34;5047928;28;20210;-76
2023/12/24 09:05:08;;;;;;;2.40;2.20;;;;;;;18.94;54.76;94359.34;5039927;28;20731;-69
2023/12/24 09:07:35;;;;;;;2.07;1.87;;;;;;;18.97;54.62;94354.56;5049578;28;20307;-77
2023/12/24 09:10:02;;;;;;;2.50;2.00;;;;;;;19.01;54.17;94357.56;5054264;28;20179;-77
2023/12/24 09:12:30;;;;;;;2.27;2.03;;;;;;;18.83;54.11;94329.66;5058889;28;20319;-72
2023/12/24 09:14:57;;;;;;;2.00;1.90;;;;;;;19.07;53.83;94366.34;5046925;28;20199;-75
2023/12/24 09:17:24;;;;;;;3.63;1.80;;;;;;;19.07;53.36;94369.72;5029275;28;20191;-75
2023/12/24 09:19:52;;;;;;;1.63;1.53;;;;;;;19.05;53.45;94362.16;5029267;28;20227;-78
2023/12/24 09:22:19;;;;;;;2.50;1.93;;;;;;;18.80;53.19;94330.84;5031245;28;20195;-81
2023/12/24 09:24:45;;;;;;;4.23;2.20;;;;;;;18.97;53.31;94366.75;5033363;28;20196;-77
2023/12/24 09:27:12;;;;;;;1.70;1.60;;;;;;;18.79;53.35;94341.41;5037616;28;20306;-75
2023/12/24 09:29:40;;;;;;;4.50;1.87;;;;;;;18.85;53.39;94358.75;5044526;28;20195;-74
2023/12/24 09:32:08;;;;;;;4.57;1.87;;;;;;;18.86;53.66;94352.56;5038566;28;20192;-79
2023/12/24 09:34:34;;;;;;;2.00;1.80;;;;;;;18.87;53.92;94355.94;5028062;28;20245;-78
2023/12/24 09:37:01;;;;;;;6.27;2.00;;;;;;;18.69;54.02;94349.53;5027885;28;20192;-77
2023/12/24 09:39:28;;;;;;;2.13;1.93;;;;;;;18.77;54.16;94364.91;5028596;28;20187;-75
2023/12/24 09:41:55;;;;;;;1.90;1.77;;;;;;;18.72;54.12;94362.09;5028461;28;20192;-76
2023/12/24 09:44:23;;;;;;;3.43;2.00;;;;;;;18.46;54.05;94323.16;5034007;28;20282;-84
2023/12/24 09:46:51;;;;;;;4.20;1.97;;;;;;;18.62;54.05;94348.72;5047451;28;20230;-77
2023/12/24 09:49:17;;;;;;;1.97;1.73;;;;;;;18.57;54.26;94353.69;5048431;28;20623;-79
2023/12/24 09:51:44;;;;;;;2.10;1.90;;;;;;;18.43;54.24;94334.69;5048118;28;20663;-78
2023/12/24 09:54:12;;;;;;;4.90;1.80;;;;;;;18.41;55.79;94341.06;5048482;28;20191;-79
2023/12/24 09:56:39;;;;;;;7.87;2.17;;;;;;;18.39;56.96;94304.22;5048071;28;20559;-76
2023/12/24 09:59:05;;;;;;;1.60;1.50;;;;;;;18.26;56.66;94251.44;5037282;28;20190;-77
2023/12/24 10:01:41;;;;;;;2.50;1.70;;;;;;;18.69;56.50;94305.50;5047503;28;20188;-79
2023/12/24 10:04:09;;;;;;;3.73;1.70;;;;;;;18.49;56.49;94266.59;5047891;28;20191;-74
2023/12/24 10:06:51;;;;;;;5.97;2.30;;;;;;;18.70;56.04;94277.81;5047413;28;20211;-78
2023/12/24 10:09:18;;;;;;;3.63;1.80;;;;;;;18.59;56.12;94266.22;5047577;28;20187;-75
2023/12/24 10:11:45;;;;;;;3.27;1.83;;;;;;;18.65;56.01;94278.38;5047452;28;20562;-77
2023/12/24 10:14:15;;;;;;;4.70;2.00;;;;;;;18.62;55.71;94281.38;5045479;28;20187;-75
2023/12/24 10:16:43;;;;;;;2.10;1.90;;;;;;;18.56;55.68;94264.00;5049893;28;20283;-72
2023/12/24 10:19:23;;;;;;;2.73;1.93;;;;;;;18.63;55.24;94266.63;5049240;28;20726;-76
2023/12/24 10:21:59;;;;;;;3.47;1.70;;;;;;;18.59;54.81;94245.50;5049650;28;20248;-69
2023/12/24 10:24:27;;;;;;;2.60;1.80;;;;;;;18.67;54.83;94247.91;5049528;28;20583;-72
2023/12/24 10:27:04;;;;;;;1.87;1.77;;;;;;;18.72;54.20;94237.75;5042796;28;20223;-70
2023/12/24 10:29:30;;;;;;;1.97;1.87;;;;;;;18.75;54.07;94215.84;5029560;28;20191;-69
2023/12/24 10:31:57;;;;;;;2.40;1.70;;;;;;;18.85;53.76;94218.81;5029605;28;20180;-70
2023/12/24 10:34:26;;;;;;;1.87;1.77;;;;;;;18.95;53.56;94218.41;5029713;28;20184;-69
2023/12/24 10:36:53;;;;;;;2.57;2.00;;;;;;;19.04;53.26;94214.63;5029511;28;20262;-71
2023/12/24 10:39:25;;;;;;;1.95;1.60;;;;;;;19.15;52.87;94210.63;5029471;28;20192;-71
2023/12/24 10:41:54;;;;;;;4.03;1.60;;;;;;;19.25;52.60;94211.00;5029645;28;20187;-68
2023/12/24 10:44:22;;;;;;;4.38;2.50;;;;;;;19.36;52.60;94218.16;5029602;28;20350;-68
2023/12/24 10:46:49;;;;;;;2.33;1.80;;;;;;;19.49;52.44;94240.69;5029853;28;20298;-74
2023/12/24 10:49:16;;;;;;;3.10;1.80;;;;;;;19.51;51.95;94212.72;5029726;28;20192;-73
2023/12/24 10:51:44;;;;;;;2.87;1.90;;;;;;;19.68;51.87;94226.06;5029173;28;20665;-74
2023/12/24 10:54:11;;;;;;;2.65;2.20;;;;;;;19.73;51.62;94224.47;5029200;28;20199;-68
2023/12/24 10:56:53;;;;;;;3.15;1.90;;;;;;;19.84;51.40;94225.63;5029395;28;20194;-71
2023/12/24 10:59:31;;;;;;;2.35;1.83;;;;;;;19.80;50.91;94204.47;5029483;28;20202;-71
2023/12/24 11:01:59;;;;;;;3.50;2.08;;;;;;;19.75;51.15;94206.91;5029481;28;20222;-71
2023/12/24 11:04:45;;;;;;;4.60;1.80;;;;;;;19.76;51.50;94216.25;5029327;28;20199;-70
2023/12/24 11:07:45;;;;;;;3.17;2.10;;;;;;;19.63;51.20;94207.75;5029378;28;20227;-73
2023/12/24 11:10:43;;;;;;;2.50;2.30;;;;;;;19.62;51.44;94216.53;5029078;28;20791;-71
2023/12/24 11:13:11;;;;;;;3.75;3.40;;;;;;;19.34;51.67;94165.69;5029143;28;20584;-72
2023/12/24 11:15:43;;;;;;;4.77;2.90;;;;;;;19.43;51.79;94225.91;5029459;28;20223;-72
2023/12/24 11:18:10;;;;;;;5.10;3.50;;;;;;;19.35;51.94;94223.56;5028949;28;20719;-75
2023/12/24 11:20:41;;;;;;;4.75;3.63;;;;;;;19.27;51.99;94229.75;5029494;28;20253;-70
2023/12/24 11:23:11;;;;;;;4.78;3.30;;;;;;;19.20;52.03;94216.78;5028803;28;20200;-70
2023/12/24 11:25:41;;;;;;;5.45;3.13;;;;;;;18.96;52.02;94200.09;5029358;28;20280;-72
2023/12/24 11:28:11;;;;;;;5.00;3.50;;;;;;;19.06;52.17;94212.63;5029037;28;20230;-70
2023/12/24 11:31:03;;;;;;;3.93;2.83;;;;;;;18.97;52.16;94212.06;5029424;28;20291;-71
2023/12/24 11:33:49;;;;;;;8.17;3.00;;;;;;;18.92;52.20;94205.88;5028924;28;20210;-71
2023/12/24 11:36:18;;;;;;;3.17;2.88;;;;;;;18.83;52.25;94189.75;5029247;28;20184;-69
2023/12/24 11:38:46;;;;;;;5.37;3.00;;;;;;;18.83;52.23;94205.28;5028709;28;20726;-68